Time;durP1;ratioP1;P1;durP2;ratioP2;P2;SDS_P1;SDS_P2;PMS_P1;PMS_P2;Temp;Humidity;BMP_temperature;BMP_pressure;BME280_temperature;BME280_humidity;BME280_pressure;Samples;Min_cycle;Max_cycle;Signal;HPM_P1;HPM_P2
2023/04/16 00:01:25;;;;;;;12.20;2.40;;;;;;;-143.48;100.00;118439.88;5052977;28;20013;-66
2023/04/16 00:03:51;;;;;;;8.90;2.30;;;;;;;-143.48;100.00;118439.88;5053016;28;20032;-66
2023/04/16 00:06:16;;;;;;;9.07;2.65;;;;;;;-143.48;100.00;118439.88;5053073;28;20033;-66
2023/04/16 00:08:42;;;;;;;7.03;2.20;;;;;;;-143.48;100.00;118439.88;5053027;28;20032;-66
2023/04/16 00:11:07;;;;;;;9.63;2.63;;;;;;;-143.48;100.00;118439.88;5052783;28;20040;-67
2023/04/16 00:13:33;;;;;;;9.80;2.20;;;;;;;-143.48;100.00;118439.88;5053058;28;20028;-67
2023/04/16 00:15:58;;;;;;;9.57;2.20;;;;;;;-143.48;100.00;118439.88;5052995;28;20100;-66
2023/04/16 00:18:23;;;;;;;11.02;2.17;;;;;;;-143.48;100.00;118439.88;5052914;28;20043;-66
2023/04/16 00:20:49;;;;;;;11.85;2.28;;;;;;;-143.48;100.00;118439.88;5052735;28;20431;-67
2023/04/16 00:23:15;;;;;;;8.43;2.30;;;;;;;-143.48;100.00;118439.88;5052951;28;20025;-66
2023/04/16 00:25:41;;;;;;;7.95;2.30;;;;;;;-143.48;100.00;118439.88;5052754;28;20083;-68
2023/04/16 00:28:07;;;;;;;8.50;2.35;;;;;;;-143.48;100.00;118439.88;5035289;28;20131;-68
2023/04/16 00:30:34;;;;;;;6.38;2.40;;;;;;;-143.48;100.00;118439.88;5052778;28;20025;-66
2023/04/16 00:33:00;;;;;;;8.63;2.38;;;;;;;-143.48;100.00;118439.88;5053129;28;20104;-66
2023/04/16 00:35:26;;;;;;;10.45;2.60;;;;;;;-143.48;100.00;118439.88;5034896;28;20067;-66
2023/04/16 00:37:51;;;;;;;8.73;2.40;;;;;;;-143.48;100.00;118439.88;5052641;28;20025;-66
2023/04/16 00:40:16;;;;;;;9.52;2.58;;;;;;;-143.48;100.00;118439.88;5052718;28;20028;-66
2023/04/16 00:42:41;;;;;;;10.93;2.40;;;;;;;-143.48;100.00;118439.88;5052064;28;20567;-67
2023/04/16 00:45:08;;;;;;;8.30;2.38;;;;;;;-143.48;100.00;118439.88;5052600;28;20029;-67
2023/04/16 00:47:33;;;;;;;14.38;3.78;;;;;;;-143.48;100.00;118439.88;5052656;28;20040;-66
2023/04/16 00:49:58;;;;;;;5.65;2.30;;;;;;;-143.48;100.00;118439.88;5052466;28;20029;-66
2023/04/16 00:52:25;;;;;;;6.00;2.55;;;;;;;-143.48;100.00;118439.88;5052498;28;20505;-67
2023/04/16 00:54:51;;;;;;;10.45;2.78;;;;;;;-143.48;99.21;118439.88;5052484;28;20025;-67
2023/04/16 00:57:19;;;;;;;8.10;2.53;;;;;;;-143.48;98.91;118439.88;5052454;28;20020;-66
2023/04/16 00:59:45;;;;;;;8.95;2.75;;;;;;;-143.48;98.99;118439.88;5052664;28;20043;-67
2023/04/16 01:02:11;;;;;;;7.53;2.65;;;;;;;-143.48;98.14;118439.88;5052482;28;20472;-67
2023/04/16 01:04:36;;;;;;;6.20;2.85;;;;;;;-143.48;98.54;118439.88;5052459;28;20053;-66
2023/04/16 01:07:02;;;;;;;8.45;2.90;;;;;;;-143.48;98.63;118439.88;5052630;28;20060;-66
2023/04/16 01:09:27;;;;;;;5.22;2.90;;;;;;;-143.48;98.85;118439.88;5052359;28;20033;-69
2023/04/16 01:11:52;;;;;;;13.80;3.17;;;;;;;-143.48;98.32;118439.88;5052692;28;20074;-69
2023/04/16 01:14:17;;;;;;;7.05;2.95;;;;;;;-143.48;98.30;118439.88;5056208;28;20079;-68
2023/04/16 01:16:43;;;;;;;7.55;3.13;;;;;;;-143.48;98.39;118439.88;5056090;28;20036;-69
2023/04/16 01:19:08;;;;;;;6.57;2.58;;;;;;;-143.48;97.88;118439.88;5055999;28;20035;-68
2023/04/16 01:21:33;;;;;;;5.85;2.90;;;;;;;-143.48;97.99;118439.88;5038205;28;20530;-69
2023/04/16 01:24:03;;;;;;;4.50;2.38;;;;;;;-143.48;98.24;118439.88;5056101;28;20021;-69
2023/04/16 01:26:28;;;;;;;8.32;2.58;;;;;;;-143.48;98.01;118439.88;5055880;28;20411;-69
2023/04/16 01:28:54;;;;;;;6.07;2.75;;;;;;;-143.48;97.73;118439.88;5058388;28;20057;-69
2023/04/16 01:31:19;;;;;;;7.95;3.05;;;;;;;-143.48;97.92;118439.88;5055704;28;20078;-69
2023/04/16 01:33:45;;;;;;;7.25;3.20;;;;;;;-143.48;98.07;118439.88;5055876;28;20500;-69
2023/04/16 01:36:10;;;;;;;8.63;2.95;;;;;;;-143.48;98.31;118439.88;5055764;28;20053;-69
2023/04/16 01:38:35;;;;;;;7.40;3.00;;;;;;;-143.48;97.92;118439.88;5037857;28;20029;-69
2023/04/16 01:41:01;;;;;;;6.30;3.05;;;;;;;-143.48;97.60;118439.88;5055636;28;20017;-69
2023/04/16 01:43:26;;;;;;;9.05;3.20;;;;;;;-143.48;98.90;118439.88;5055537;28;20128;-69
2023/04/16 01:45:58;;;;;;;6.10;3.10;;;;;;;-143.48;98.06;118439.88;5055657;28;20310;-69
2023/04/16 01:48:23;;;;;;;6.75;2.90;;;;;;;-143.48;98.08;118439.88;5055984;28;20063;-68
2023/04/16 01:50:49;;;;;;;7.85;3.28;;;;;;;-143.48;97.97;118439.88;5055159;28;20500;-68
2023/04/16 01:53:14;;;;;;;6.00;3.22;;;;;;;-143.48;97.55;118439.88;5037414;28;20431;-68
2023/04/16 01:55:40;;;;;;;7.28;3.20;;;;;;;-143.48;97.63;118439.88;5055418;28;20052;-68
2023/04/16 01:58:09;;;;;;;9.45;3.20;;;;;;;-143.48;97.38;118439.88;5055393;28;20053;-68
2023/04/16 02:00:34;;;;;;;10.48;3.10;;;;;;;-143.48;97.78;118439.88;5055308;28;20059;-69
2023/04/16 02:03:00;;;;;;;7.30;3.00;;;;;;;-143.48;98.09;118439.88;5037647;28;20033;-69
2023/04/16 02:05:25;;;;;;;11.27;3.20;;;;;;;-143.48;97.89;118439.88;5055163;28;20028;-69
2023/04/16 02:07:50;;;;;;;8.80;3.28;;;;;;;-143.48;98.92;118439.88;5054188;28;20039;-69
2023/04/16 02:10:15;;;;;;;9.63;3.00;;;;;;;-143.48;98.71;118439.88;5054326;28;20491;-70
2023/04/16 02:12:41;;;;;;;7.53;3.40;;;;;;;-143.48;97.84;118439.88;5055542;28;20056;-69
2023/04/16 02:15:06;;;;;;;8.70;3.35;;;;;;;-143.48;98.04;118439.88;5054093;28;20045;-68
2023/04/16 02:17:32;;;;;;;10.60;3.10;;;;;;;-143.48;98.11;118439.88;5053142;28;20029;-69
2023/04/16 02:19:57;;;;;;;9.40;3.28;;;;;;;-143.48;98.01;118439.88;5052949;28;20024;-69
2023/04/16 02:22:22;;;;;;;9.77;3.42;;;;;;;-143.48;97.11;118439.88;5053195;28;20123;-69
2023/04/16 02:24:49;;;;;;;15.07;3.40;;;;;;;-143.48;97.32;118439.88;5054664;28;20052;-69
2023/04/16 02:27:14;;;;;;;11.38;4.00;;;;;;;-143.48;97.73;118439.88;5054954;28;20032;-69
2023/04/16 02:29:40;;;;;;;9.80;4.53;;;;;;;-143.48;98.09;118439.88;5055180;28;20017;-69
2023/04/16 02:32:05;;;;;;;10.35;3.88;;;;;;;-143.48;98.81;118439.88;5054627;28;20491;-68
2023/04/16 02:34:32;;;;;;;9.68;3.90;;;;;;;-143.48;98.76;118439.88;5054612;28;20107;-68
2023/04/16 02:36:57;;;;;;;9.45;3.90;;;;;;;-143.48;98.97;118439.88;5054642;28;20025;-68
2023/04/16 02:39:23;;;;;;;16.60;5.45;;;;;;;-143.48;99.13;118439.88;5054422;28;20035;-69
2023/04/16 02:41:48;;;;;;;12.90;4.10;;;;;;;-143.48;99.34;118439.88;5039473;28;20396;-68
2023/04/16 02:44:13;;;;;;;8.45;3.80;;;;;;;-143.48;99.16;118439.88;5055855;28;20021;-68
2023/04/16 02:46:39;;;;;;;11.13;3.35;;;;;;;-143.48;99.38;118439.88;5056131;28;20059;-69
2023/04/16 02:49:04;;;;;;;11.80;4.00;;;;;;;-143.48;99.20;118439.88;5054653;28;20036;-68
2023/04/16 02:51:29;;;;;;;8.73;4.00;;;;;;;-143.48;99.40;118439.88;5054470;28;20036;-68
2023/04/16 02:53:55;;;;;;;9.25;3.63;;;;;;;-143.48;98.71;118439.88;5054323;28;20066;-69
2023/04/16 02:56:20;;;;;;;11.85;4.28;;;;;;;-143.48;99.59;118439.88;5054442;28;20050;-68
2023/04/16 02:58:45;;;;;;;11.82;4.05;;;;;;;-143.48;99.09;118439.88;5054259;28;20025;-68
2023/04/16 03:01:11;;;;;;;12.30;4.10;;;;;;;-143.48;99.48;118439.88;5054369;28;20021;-68
2023/04/16 03:03:36;;;;;;;10.68;4.18;;;;;;;-143.48;99.78;118439.88;5036063;28;20036;-68
2023/04/16 03:06:01;;;;;;;8.65;4.03;;;;;;;-143.48;99.55;118439.88;5036172;28;20021;-68
2023/04/16 03:08:26;;;;;;;8.30;4.13;;;;;;;-143.48;99.64;118439.88;5053901;28;20025;-68
2023/04/16 03:10:52;;;;;;;11.73;4.18;;;;;;;-143.48;99.71;118439.88;5053927;28;20029;-68
2023/04/16 03:13:17;;;;;;;16.75;4.60;;;;;;;-143.48;99.33;118439.88;5036020;28;20035;-69
2023/04/16 03:15:49;;;;;;;10.45;4.10;;;;;;;-143.48;99.26;118439.88;5054007;28;20017;-68
2023/04/16 03:18:15;;;;;;;11.40;4.67;;;;;;;-143.48;100.00;118439.88;5053550;28;20104;-68
2023/04/16 03:20:40;;;;;;;15.50;4.63;;;;;;;-143.48;99.31;118439.88;5053857;28;20500;-69
2023/04/16 03:23:05;;;;;;;12.80;4.50;;;;;;;-143.48;99.38;118439.88;5053671;28;20017;-68
2023/04/16 03:25:31;;;;;;;16.10;4.50;;;;;;;-143.48;100.00;118439.88;5053722;28;20484;-69
2023/04/16 03:27:56;;;;;;;10.10;4.43;;;;;;;-143.48;100.00;118439.88;5053517;28;20074;-69
2023/04/16 03:30:21;;;;;;;11.25;4.45;;;;;;;-143.48;100.00;118439.88;5053484;28;20120;-69
2023/04/16 03:32:47;;;;;;;21.75;5.55;;;;;;;-143.48;100.00;118439.88;5053435;28;20024;-68
2023/04/16 03:35:12;;;;;;;15.75;4.60;;;;;;;-143.48;100.00;118439.88;5054828;28;20083;-68
2023/04/16 03:37:37;;;;;;;17.52;5.07;;;;;;;-143.48;100.00;118439.88;5053726;28;20392;-68
2023/04/16 03:40:04;;;;;;;15.55;5.30;;;;;;;-143.48;100.00;118439.88;5053428;28;20029;-68
2023/04/16 03:42:30;;;;;;;19.45;5.38;;;;;;;-143.48;100.00;118439.88;5035535;28;20037;-68
2023/04/16 03:44:56;;;;;;;17.33;5.72;;;;;;;-143.48;100.00;118439.88;5053321;28;20463;-69
2023/04/16 03:47:21;;;;;;;17.30;5.63;;;;;;;-143.48;100.00;118439.88;5053403;28;20099;-68
2023/04/16 03:49:46;;;;;;;22.08;6.47;;;;;;;-143.48;100.00;118439.88;5053338;28;20120;-68
2023/04/16 03:52:12;;;;;;;19.25;5.88;;;;;;;-143.48;100.00;118439.88;5053345;28;20491;-69
2023/04/16 03:54:37;;;;;;;22.08;5.90;;;;;;;-143.48;100.00;118439.88;5053235;28;20035;-69
2023/04/16 03:57:02;;;;;;;15.90;5.93;;;;;;;-143.48;99.89;118439.88;5053138;28;20448;-69
2023/04/16 03:59:28;;;;;;;18.52;5.90;;;;;;;-143.48;100.00;118439.88;5052752;28;20021;-68
2023/04/16 04:01:53;;;;;;;20.65;6.10;;;;;;;-143.48;100.00;118439.88;5053046;28;20456;-69
2023/04/16 04:04:18;;;;;;;17.02;5.85;;;;;;;-143.48;100.00;118439.88;5052953;28;20056;-68
2023/04/16 04:06:45;;;;;;;18.25;5.90;;;;;;;-143.48;100.00;118439.88;5052846;28;20400;-68
2023/04/16 04:09:10;;;;;;;17.40;6.35;;;;;;;-143.48;100.00;118439.88;5052793;28;20021;-69
2023/04/16 04:11:35;;;;;;;21.75;6.43;;;;;;;-143.48;100.00;118439.88;5052748;28;20388;-69
2023/04/16 04:14:01;;;;;;;19.23;7.05;;;;;;;-143.48;100.00;118439.88;5052811;28;20111;-69
2023/04/16 04:16:26;;;;;;;21.42;6.78;;;;;;;-143.48;100.00;118439.88;5052904;28;20021;-69
2023/04/16 04:18:51;;;;;;;19.08;6.57;;;;;;;-143.48;100.00;118439.88;5052792;28;20461;-69
2023/04/16 04:21:16;;;;;;;22.55;7.40;;;;;;;-143.48;100.00;118439.88;5034924;28;20028;-69
2023/04/16 04:23:42;;;;;;;21.15;7.32;;;;;;;-143.48;100.00;118439.88;5052778;28;20404;-69
2023/04/16 04:26:08;;;;;;;26.02;7.65;;;;;;;-143.48;100.00;118439.88;5052481;28;20025;-69
2023/04/16 04:28:34;;;;;;;22.52;7.95;;;;;;;-143.48;100.00;118439.88;5052686;28;20044;-69
2023/04/16 04:31:00;;;;;;;23.08;8.05;;;;;;;-143.48;100.00;118439.88;5052720;28;20044;-69
2023/04/16 04:33:26;;;;;;;24.00;8.13;;;;;;;-143.48;100.00;118439.88;5052558;28;20016;-70
2023/04/16 04:35:52;;;;;;;32.05;8.27;;;;;;;-143.48;100.00;118439.88;5052467;28;20392;-70
2023/04/16 04:38:18;;;;;;;23.60;7.80;;;;;;;-143.48;100.00;118439.88;5052376;28;20107;-70
2023/04/16 04:40:44;;;;;;;24.45;9.27;;;;;;;-143.48;100.00;118439.88;5034623;28;20112;-69
2023/04/16 04:43:10;;;;;;;23.67;8.70;;;;;;;-143.48;100.00;118439.88;5034557;28;20072;-67
2023/04/16 04:45:35;;;;;;;33.42;9.57;;;;;;;-143.48;100.00;118439.88;5052427;28;20468;-68
2023/04/16 04:48:01;;;;;;;29.42;9.38;;;;;;;-143.48;100.00;118439.88;5055011;28;20373;-68
2023/04/16 04:50:26;;;;;;;28.65;8.50;;;;;;;-143.48;100.00;118439.88;5056528;28;20025;-68
2023/04/16 04:52:51;;;;;;;33.15;9.73;;;;;;;-143.48;100.00;118439.88;5056589;28;20167;-69
2023/04/16 04:55:16;;;;;;;27.33;9.65;;;;;;;-143.48;100.00;118439.88;5056549;28;20075;-69
2023/04/16 04:57:42;;;;;;;29.00;9.75;;;;;;;-143.48;100.00;118439.88;5056612;28;20477;-69
2023/04/16 05:00:08;;;;;;;25.38;9.52;;;;;;;-143.48;100.00;118439.88;5056304;28;20101;-68
2023/04/16 05:02:33;;;;;;;30.23;9.82;;;;;;;-143.48;100.00;118439.88;5056271;28;20021;-68
2023/04/16 05:04:58;;;;;;;30.17;9.43;;;;;;;-143.48;100.00;118439.88;5056179;28;20025;-68
2023/04/16 05:07:24;;;;;;;29.48;10.20;;;;;;;-143.48;100.00;118439.88;5038392;28;20040;-68
2023/04/16 05:09:49;;;;;;;27.70;10.55;;;;;;;-143.48;100.00;118439.88;5038317;28;20409;-68
2023/04/16 05:12:15;;;;;;;27.20;9.43;;;;;;;-143.48;100.00;118439.88;5052223;28;20029;-69
2023/04/16 05:14:40;;;;;;;27.60;10.15;;;;;;;-143.48;100.00;118439.88;5060953;28;20373;-68
2023/04/16 05:17:06;;;;;;;25.58;10.02;;;;;;;-143.48;100.00;118439.88;5056229;28;20024;-68
2023/04/16 05:19:32;;;;;;;24.80;10.18;;;;;;;-143.48;100.00;118439.88;5056017;28;20016;-69
2023/04/16 05:21:57;;;;;;;30.08;9.90;;;;;;;-143.48;100.00;118439.88;5056074;28;20032;-69
2023/04/16 05:24:22;;;;;;;29.38;10.07;;;;;;;-143.48;100.00;118439.88;5056001;28;20032;-68
2023/04/16 05:26:48;;;;;;;30.10;9.40;;;;;;;-143.48;100.00;118439.88;5055874;28;20079;-68
2023/04/16 05:29:13;;;;;;;27.55;9.48;;;;;;;-143.48;100.00;118439.88;5055939;28;20090;-69
2023/04/16 05:31:38;;;;;;;26.73;9.05;;;;;;;-143.48;100.00;118439.88;5055924;28;20028;-69
2023/04/16 05:34:04;;;;;;;22.38;8.80;;;;;;;-143.48;100.00;118439.88;5055975;28;20028;-69
2023/04/16 05:36:29;;;;;;;25.52;8.85;;;;;;;-143.48;100.00;118439.88;5055756;28;20020;-68
2023/04/16 05:38:54;;;;;;;28.73;9.68;;;;;;;-143.48;100.00;118439.88;5055601;28;20051;-69
2023/04/16 05:41:20;;;;;;;23.10;8.60;;;;;;;-143.48;100.00;118439.88;5037474;28;20021;-69
2023/04/16 05:43:45;;;;;;;25.70;8.73;;;;;;;-143.48;100.00;118439.88;5055716;28;20033;-69
2023/04/16 05:46:10;;;;;;;23.20;9.00;;;;;;;-143.48;100.00;118439.88;5055778;28;20033;-69
2023/04/16 05:48:36;;;;;;;29.67;9.45;;;;;;;-143.48;99.74;118439.88;5055516;28;20525;-69
2023/04/16 05:51:01;;;;;;;28.15;9.07;;;;;;;-143.48;100.00;118439.88;5055113;28;20679;-69
2023/04/16 05:53:26;;;;;;;27.42;8.88;;;;;;;-143.48;100.00;118439.88;5036834;28;20032;-69
2023/04/16 05:55:52;;;;;;;28.70;9.48;;;;;;;-143.48;100.00;118439.88;5054757;28;20056;-69
2023/04/16 05:58:17;;;;;;;25.50;8.60;;;;;;;-143.48;100.00;118439.88;5054310;28;20025;-69
2023/04/16 06:00:42;;;;;;;30.25;8.60;;;;;;;-143.48;100.00;118439.88;5054769;28;20017;-69
2023/04/16 06:03:08;;;;;;;23.10;8.32;;;;;;;-143.48;100.00;118439.88;5054716;28;20134;-69
2023/04/16 06:05:33;;;;;;;26.75;8.70;;;;;;;-143.48;100.00;118439.88;5054861;28;20033;-69
2023/04/16 06:07:58;;;;;;;21.05;8.43;;;;;;;-143.48;99.81;118439.88;5055226;28;20385;-69
2023/04/16 06:10:24;;;;;;;23.98;8.23;;;;;;;-143.48;99.74;118439.88;5020956;28;20028;-69
2023/04/16 06:12:49;;;;;;;22.60;8.98;;;;;;;-143.48;99.42;118439.88;5055363;28;20036;-68
2023/04/16 06:15:14;;;;;;;22.20;8.40;;;;;;;-143.48;99.14;118439.88;5055595;28;20048;-69
2023/04/16 06:17:40;;;;;;;16.13;8.48;;;;;;;-143.48;99.72;118439.88;5054891;28;20495;-68
2023/04/16 06:20:06;;;;;;;16.30;7.78;;;;;;;-143.48;99.27;118439.88;5054709;28;20043;-68
2023/04/16 06:22:31;;;;;;;21.65;8.15;;;;;;;-143.48;99.16;118439.88;5054914;28;20376;-68
2023/04/16 06:24:57;;;;;;;22.55;8.57;;;;;;;-143.48;99.22;118439.88;5036809;28;20096;-69
2023/04/16 06:27:22;;;;;;;19.67;7.90;;;;;;;-143.48;99.22;118439.88;5054883;28;20462;-68
2023/04/16 06:29:48;;;;;;;16.67;8.10;;;;;;;-143.48;99.79;118439.88;5054630;28;20029;-69
2023/04/16 06:32:13;;;;;;;19.83;8.10;;;;;;;-143.48;99.56;118439.88;5054655;28;20017;-69
2023/04/16 06:34:38;;;;;;;17.05;7.60;;;;;;;-143.48;100.00;118439.88;5054407;28;20048;-69
2023/04/16 06:37:04;;;;;;;19.48;8.30;;;;;;;-143.48;99.69;118439.88;5054638;28;20037;-70
2023/04/16 06:39:29;;;;;;;20.67;8.05;;;;;;;-143.48;99.17;118439.88;5054671;28;20112;-69
2023/04/16 06:41:55;;;;;;;20.15;8.18;;;;;;;-143.48;99.09;118439.88;5036311;28;20122;-69
2023/04/16 06:44:20;;;;;;;17.70;7.47;;;;;;;-143.48;99.55;118439.88;5054452;28;20028;-68
2023/04/16 06:46:45;;;;;;;19.25;8.60;;;;;;;-143.48;99.84;118439.88;5054438;28;20033;-69
2023/04/16 06:49:11;;;;;;;19.08;8.25;;;;;;;-143.48;99.79;118439.88;5054695;28;20427;-69
2023/04/16 06:51:36;;;;;;;16.73;7.30;;;;;;;-143.48;99.58;118439.88;5054355;28;20095;-69
2023/04/16 06:54:01;;;;;;;21.73;8.00;;;;;;;-143.48;99.68;118439.88;5036539;28;20029;-69
2023/04/16 06:56:27;;;;;;;22.15;8.50;;;;;;;-143.48;99.76;118439.88;5054388;28;20024;-69
2023/04/16 06:58:52;;;;;;;18.92;8.38;;;;;;;-143.48;99.57;118439.88;5054262;28;20064;-69
2023/04/16 07:01:17;;;;;;;19.48;8.60;;;;;;;-143.48;99.54;118439.88;5055742;28;20467;-69
2023/04/16 07:03:43;;;;;;;18.67;8.60;;;;;;;-143.48;98.82;118439.88;5054579;28;20029;-69
2023/04/16 07:06:09;;;;;;;24.45;8.93;;;;;;;-143.48;98.73;118439.88;5054205;28;20028;-69
2023/04/16 07:08:34;;;;;;;16.88;8.45;;;;;;;-143.48;97.96;118439.88;5054209;28;20032;-69
2023/04/16 07:10:59;;;;;;;18.77;8.65;;;;;;;-143.48;98.29;118439.88;5053583;28;20025;-69
2023/04/16 07:13:25;;;;;;;17.60;8.40;;;;;;;-143.48;98.60;118439.88;5054562;28;20028;-69
2023/04/16 07:15:50;;;;;;;18.50;8.35;;;;;;;-143.48;98.62;118439.88;5036100;28;20031;-69
2023/04/16 07:18:15;;;;;;;16.63;8.05;;;;;;;-143.48;98.25;118439.88;5054056;28;20361;-69
2023/04/16 07:20:41;;;;;;;19.00;8.30;;;;;;;-143.48;99.21;118439.88;5053974;28;20031;-69
2023/04/16 07:23:06;;;;;;;16.23;7.78;;;;;;;-143.48;99.12;118439.88;5053859;28;20028;-67
2023/04/16 07:25:32;;;;;;;16.52;7.97;;;;;;;-143.48;99.04;118439.88;5053821;28;20052;-66
2023/04/16 07:27:57;;;;;;;14.25;7.32;;;;;;;-143.48;98.05;118439.88;5053731;28;20029;-67
2023/04/16 07:30:22;;;;;;;14.70;7.18;;;;;;;-143.48;97.52;118439.88;5053609;28;20025;-67
2023/04/16 07:32:48;;;;;;;16.35;7.40;;;;;;;-143.48;97.14;118439.88;5053401;28;20029;-67
2023/04/16 07:35:13;;;;;;;17.40;7.72;;;;;;;-143.48;97.53;118439.88;5053613;28;20546;-67
2023/04/16 07:37:38;;;;;;;13.65;7.78;;;;;;;-143.48;97.62;118439.88;5053578;28;20021;-66
2023/04/16 07:40:04;;;;;;;13.50;7.68;;;;;;;-143.48;97.37;118439.88;5053622;28;20055;-67
2023/04/16 07:42:29;;;;;;;15.93;7.68;;;;;;;-143.48;97.39;118439.88;5053347;28;20049;-68
2023/04/16 07:44:55;;;;;;;14.27;7.90;;;;;;;-143.48;97.56;118439.88;5053478;28;20029;-66
2023/04/16 07:47:21;;;;;;;17.30;7.07;;;;;;;-143.48;96.83;118439.88;5053267;28;20017;-67
2023/04/16 07:49:49;;;;;;;16.88;7.38;;;;;;;-143.48;97.40;118439.88;5053185;28;20136;-68
2023/04/16 07:52:14;;;;;;;12.68;7.55;;;;;;;-143.48;97.96;118439.88;5035409;28;20488;-67
2023/04/16 07:54:40;;;;;;;16.65;7.20;;;;;;;-143.48;97.55;118439.88;5053108;28;20027;-66
2023/04/16 07:57:05;;;;;;;16.73;7.60;;;;;;;-143.48;96.48;118439.88;5053392;28;20096;-67
2023/04/16 07:59:30;;;;;;;14.90;7.15;;;;;;;-143.48;96.19;118439.88;5036011;28;20086;-67
2023/04/16 08:01:56;;;;;;;14.88;7.47;;;;;;;-143.48;96.76;118439.88;5053223;28;20048;-66
2023/04/16 08:04:24;;;;;;;13.27;7.05;;;;;;;-143.48;96.59;118439.88;5052825;28;20479;-67
2023/04/16 08:06:50;;;;;;;12.38;6.70;;;;;;;-143.48;95.83;118439.88;5053201;28;20033;-67
2023/04/16 08:09:16;;;;;;;12.00;6.78;;;;;;;-143.48;95.49;118439.88;5052948;28;20017;-67
2023/04/16 08:11:41;;;;;;;14.85;6.25;;;;;;;-143.48;95.56;118439.88;5052735;28;20394;-67
2023/04/16 08:14:07;;;;;;;11.48;6.10;;;;;;;-143.48;94.51;118439.88;5053343;28;20055;-66
2023/04/16 08:16:32;;;;;;;13.02;6.18;;;;;;;-143.48;94.29;118439.88;5053044;28;20107;-67
2023/04/16 08:18:59;;;;;;;11.73;5.78;;;;;;;-143.48;94.58;118439.88;5053251;28;20025;-67
2023/04/16 08:21:25;;;;;;;10.80;5.68;;;;;;;-143.48;93.86;118439.88;5052625;28;20082;-66
2023/04/16 08:23:51;;;;;;;10.38;6.28;;;;;;;-143.48;93.79;118439.88;5053080;28;20384;-67
2023/04/16 08:26:16;;;;;;;12.02;5.57;;;;;;;-143.48;94.44;118439.88;5053132;28;20021;-67
2023/04/16 08:28:41;;;;;;;11.15;5.93;;;;;;;-143.48;94.29;118439.88;5052913;28;20020;-68
2023/04/16 08:31:06;;;;;;;9.77;5.03;;;;;;;-143.48;93.87;118439.88;5053050;28;20107;-68
2023/04/16 08:33:32;;;;;;;11.32;5.13;;;;;;;-143.48;93.71;118439.88;5052739;28;20032;-67
2023/04/16 08:35:57;;;;;;;10.07;5.07;;;;;;;-143.48;93.39;118439.88;5052994;28;20104;-68
2023/04/16 08:38:22;;;;;;;9.88;4.93;;;;;;;-143.48;95.04;118439.88;5052929;28;20382;-68
2023/04/16 08:40:48;;;;;;;8.95;4.80;;;;;;;-143.48;94.55;118439.88;5052523;28;20021;-68
2023/04/16 08:43:15;;;;;;;9.15;4.82;;;;;;;-143.48;94.51;118439.88;5052748;28;20044;-68
2023/04/16 08:45:43;;;;;;;9.98;5.38;;;;;;;-143.48;94.08;118439.88;5053028;28;20037;-68
2023/04/16 08:48:10;;;;;;;8.60;4.57;;;;;;;-143.48;94.64;118439.88;5052690;28;20040;-68
2023/04/16 08:50:36;;;;;;;11.93;7.00;;;;;;;-143.48;95.46;118439.88;5052549;28;20029;-70
2023/04/16 08:53:06;;;;;;;11.23;4.57;;;;;;;-143.48;95.07;118439.88;5052688;28;20040;-69
2023/04/16 08:55:39;;;;;;;11.88;4.65;;;;;;;-143.48;94.82;118439.88;5052603;28;20479;-69
2023/04/16 08:58:12;;;;;;;11.40;5.40;;;;;;;-143.48;94.02;118439.88;5052608;28;20029;-68
2023/04/16 09:00:39;;;;;;;8.90;4.63;;;;;;;-143.48;93.98;118439.88;5052909;28;20048;-68
2023/04/16 09:03:06;;;;;;;10.00;4.45;;;;;;;-143.48;94.44;118439.88;5052943;28;20028;-67
2023/04/16 09:05:32;;;;;;;13.13;5.05;;;;;;;-143.48;93.76;118439.88;5052698;28;20029;-67
2023/04/16 09:07:57;;;;;;;9.70;4.65;;;;;;;-143.48;94.25;118439.88;5034483;28;20032;-67
2023/04/16 09:10:25;;;;;;;11.15;5.90;;;;;;;-143.48;94.21;118439.88;5051702;28;20017;-69
2023/04/16 09:12:50;;;;;;;9.18;4.47;;;;;;;-143.48;93.41;118439.88;5051907;28;20057;-67
2023/04/16 09:15:16;;;;;;;8.45;4.28;;;;;;;-143.48;93.48;118439.88;5052293;28;20063;-67
2023/04/16 09:17:41;;;;;;;7.82;4.03;;;;;;;-143.48;93.50;118439.88;5051806;28;20120;-68
2023/04/16 09:20:08;;;;;;;7.43;4.10;;;;;;;-143.48;93.70;118439.88;5051480;28;20040;-68
2023/04/16 09:22:36;;;;;;;8.85;4.07;;;;;;;-143.48;93.31;118439.88;5052297;28;20031;-68
2023/04/16 09:25:02;;;;;;;8.63;4.50;;;;;;;-143.48;92.95;118439.88;5052524;28;20017;-68
2023/04/16 09:27:29;;;;;;;7.95;4.45;;;;;;;-143.48;93.75;118439.88;5051911;28;20029;-68
2023/04/16 09:29:54;;;;;;;7.63;4.30;;;;;;;-143.48;92.93;118439.88;5050276;28;20025;-67
2023/04/16 09:32:25;;;;;;;9.80;4.07;;;;;;;-143.48;93.85;118439.88;5050119;28;20028;-67
2023/04/16 09:34:56;;;;;;;8.05;4.30;;;;;;;-143.48;94.40;118439.88;5054091;28;20361;-68
2023/04/16 09:37:22;;;;;;;6.65;3.83;;;;;;;-143.48;93.85;118439.88;5054062;28;20063;-68
2023/04/16 09:40:08;;;;;;;5.97;3.95;;;;;;;-143.48;92.50;118439.88;5053895;28;20442;-68
2023/04/16 09:42:35;;;;;;;8.25;4.03;;;;;;;-143.48;92.86;118439.88;5052897;28;20053;-68
2023/04/16 09:45:01;;;;;;;12.60;4.57;;;;;;;-143.48;92.80;118439.88;5055801;28;20075;-68
2023/04/16 09:47:39;;;;;;;9.05;4.07;;;;;;;-143.48;93.34;118439.88;5055777;28;20017;-67
2023/04/16 09:50:06;;;;;;;7.93;4.00;;;;;;;-143.48;92.83;118439.88;5037882;28;20033;-68
2023/04/16 09:52:35;;;;;;;11.63;3.97;;;;;;;-143.48;92.84;118439.88;5037613;28;20017;-67
2023/04/16 09:55:01;;;;;;;8.38;4.28;;;;;;;-143.48;92.60;118439.88;5055468;28;20033;-67
2023/04/16 09:57:26;;;;;;;7.97;4.40;;;;;;;-143.48;92.81;118439.88;5055451;28;20028;-66
2023/04/16 09:59:56;;;;;;;8.88;4.10;;;;;;;-143.48;92.17;118439.88;5055440;28;20028;-68
2023/04/16 10:02:25;;;;;;;10.98;4.18;;;;;;;-143.48;93.58;118439.88;5037629;28;20074;-67
2023/04/16 10:04:52;;;;;;;8.98;4.30;;;;;;;-143.48;93.71;118439.88;5055414;28;20021;-68
2023/04/16 10:07:21;;;;;;;10.05;4.15;;;;;;;-143.48;92.82;118439.88;5068467;28;20036;-67
2023/04/16 10:09:47;;;;;;;10.52;4.72;;;;;;;-143.48;92.29;118439.88;5070045;28;20056;-68
2023/04/16 10:12:14;;;;;;;14.55;4.90;;;;;;;-143.48;92.78;118439.88;5063987;28;20025;-68
2023/04/16 10:14:41;;;;;;;9.75;4.97;;;;;;;-143.48;92.69;118439.88;5043195;28;20044;-69
2023/04/16 10:17:08;;;;;;;11.23;4.97;;;;;;;-143.48;92.74;118439.88;5059161;28;20051;-67
2023/04/16 10:19:34;;;;;;;20.88;5.85;;;;;;;-143.48;91.98;118439.88;5055328;28;20039;-67
2023/04/16 10:22:00;;;;;;;16.20;5.78;;;;;;;-143.48;91.62;118439.88;5054997;28;20025;-67
2023/04/16 10:24:25;;;;;;;14.07;5.15;;;;;;;-143.48;91.62;118439.88;5055127;28;20029;-67
2023/04/16 10:26:51;;;;;;;10.30;4.90;;;;;;;-143.48;90.69;118439.88;5054763;28;20035;-68
2023/04/16 10:29:19;;;;;;;9.85;4.93;;;;;;;-143.48;91.27;118439.88;5054610;28;20021;-68
2023/04/16 10:31:46;;;;;;;11.48;4.78;;;;;;;-143.48;90.32;118439.88;5054826;28;20040;-67
2023/04/16 10:34:11;;;;;;;10.05;4.43;;;;;;;-143.48;89.65;118439.88;5054892;28;20021;-68
2023/04/16 10:36:38;;;;;;;10.13;4.45;;;;;;;-143.48;89.30;118439.88;5036905;28;20082;-69
2023/04/16 10:39:10;;;;;;;14.57;5.47;;;;;;;-143.48;89.21;118439.88;5054842;28;20476;-68
2023/04/16 10:41:36;;;;;;;11.98;5.22;;;;;;;-143.48;90.17;118439.88;5054635;28;20060;-68
2023/04/16 10:44:09;;;;;;;15.77;5.47;;;;;;;-143.48;88.75;118439.88;5054779;28;20100;-67
2023/04/16 10:46:42;;;;;;;15.93;6.97;;;;;;;-143.48;89.21;118439.88;5036672;28;20021;-68
2023/04/16 10:49:23;;;;;;;21.77;7.72;;;;;;;-143.48;89.49;118439.88;5054413;28;20025;-68
2023/04/16 10:51:57;;;;;;;15.05;6.70;;;;;;;-143.48;89.83;118439.88;5054368;28;20468;-67
2023/04/16 10:54:28;;;;;;;18.70;7.65;;;;;;;-143.48;89.63;118439.88;5054941;28;20019;-67
2023/04/16 10:57:02;;;;;;;20.90;7.60;;;;;;;-143.48;89.18;118439.88;5054286;28;20032;-67